sensor_id;sensor_type;location;lat;lon;timestamp;P1;durP1;ratioP1;P2;durP2;ratioP2
49910;SDS011;35803;53.096;5.844;2023-03-07T00:01:34;3.40;;;1.25;;
49910;SDS011;35803;53.096;5.844;2023-03-07T00:04:00;3.75;;;1.45;;
49910;SDS011;35803;53.096;5.844;2023-03-07T00:06:25;4.00;;;1.30;;
49910;SDS011;35803;53.096;5.844;2023-03-07T00:08:51;4.05;;;1.35;;
49910;SDS011;35803;53.096;5.844;2023-03-07T00:11:18;3.55;;;1.20;;
49910;SDS011;35803;53.096;5.844;2023-03-07T00:13:44;5.05;;;1.67;;
49910;SDS011;35803;53.096;5.844;2023-03-07T00:16:11;4.40;;;1.20;;
49910;SDS011;35803;53.096;5.844;2023-03-07T00:18:41;4.25;;;1.00;;
49910;SDS011;35803;53.096;5.844;2023-03-07T00:21:09;5.13;;;1.20;;
49910;SDS011;35803;53.096;5.844;2023-03-07T00:23:36;5.00;;;1.38;;
49910;SDS011;35803;53.096;5.844;2023-03-07T00:26:07;6.97;;;1.88;;
49910;SDS011;35803;53.096;5.844;2023-03-07T00:28:44;8.80;;;1.77;;
49910;SDS011;35803;53.096;5.844;2023-03-07T00:31:10;1.95;;;1.05;;
49910;SDS011;35803;53.096;5.844;2023-03-07T00:33:36;4.47;;;1.00;;
49910;SDS011;35803;53.096;5.844;2023-03-07T00:36:04;3.47;;;1.00;;
49910;SDS011;35803;53.096;5.844;2023-03-07T00:38:36;7.40;;;1.17;;
49910;SDS011;35803;53.096;5.844;2023-03-07T00:41:05;2.63;;;0.80;;
49910;SDS011;35803;53.096;5.844;2023-03-07T00:43:35;7.90;;;1.20;;
49910;SDS011;35803;53.096;5.844;2023-03-07T00:46:01;3.67;;;1.20;;
49910;SDS011;35803;53.096;5.844;2023-03-07T00:48:27;3.40;;;1.15;;
49910;SDS011;35803;53.096;5.844;2023-03-07T00:50:53;3.50;;;1.10;;
49910;SDS011;35803;53.096;5.844;2023-03-07T00:53:19;6.93;;;1.38;;
49910;SDS011;35803;53.096;5.844;2023-03-07T00:55:55;6.60;;;1.02;;
49910;SDS011;35803;53.096;5.844;2023-03-07T00:58:22;3.60;;;0.93;;
49910;SDS011;35803;53.096;5.844;2023-03-07T01:00:48;2.92;;;0.77;;
49910;SDS011;35803;53.096;5.844;2023-03-07T01:03:14;4.45;;;0.93;;
49910;SDS011;35803;53.096;5.844;2023-03-07T01:05:39;11.23;;;1.48;;
49910;SDS011;35803;53.096;5.844;2023-03-07T01:08:05;12.85;;;1.27;;
49910;SDS011;35803;53.096;5.844;2023-03-07T01:10:31;2.92;;;0.95;;
49910;SDS011;35803;53.096;5.844;2023-03-07T01:13:00;6.78;;;1.05;;
49910;SDS011;35803;53.096;5.844;2023-03-07T01:15:26;4.00;;;1.05;;
49910;SDS011;35803;53.096;5.844;2023-03-07T01:17:52;2.58;;;1.13;;
49910;SDS011;35803;53.096;5.844;2023-03-07T01:20:18;4.65;;;1.00;;
49910;SDS011;35803;53.096;5.844;2023-03-07T01:22:43;2.30;;;0.75;;
49910;SDS011;35803;53.096;5.844;2023-03-07T01:25:09;6.03;;;1.52;;
49910;SDS011;35803;53.096;5.844;2023-03-07T01:27:36;4.07;;;1.17;;
49910;SDS011;35803;53.096;5.844;2023-03-07T01:30:02;1.40;;;0.82;;
49910;SDS011;35803;53.096;5.844;2023-03-07T01:32:28;3.92;;;0.95;;
49910;SDS011;35803;53.096;5.844;2023-03-07T01:34:53;4.97;;;0.80;;
49910;SDS011;35803;53.096;5.844;2023-03-07T01:37:19;1.90;;;0.65;;
49910;SDS011;35803;53.096;5.844;2023-03-07T01:39:44;4.22;;;1.05;;
49910;SDS011;35803;53.096;5.844;2023-03-07T01:42:10;5.93;;;1.10;;
49910;SDS011;35803;53.096;5.844;2023-03-07T01:47:37;2.65;;;0.75;;
49910;SDS011;35803;53.096;5.844;2023-03-07T01:50:05;8.88;;;1.40;;
49910;SDS011;35803;53.096;5.844;2023-03-07T01:52:40;5.35;;;1.13;;
49910;SDS011;35803;53.096;5.844;2023-03-07T01:55:12;7.65;;;1.10;;
49910;SDS011;35803;53.096;5.844;2023-03-07T01:57:41;5.30;;;0.93;;
49910;SDS011;35803;53.096;5.844;2023-03-07T02:00:08;3.97;;;1.00;;
49910;SDS011;35803;53.096;5.844;2023-03-07T02:02:36;4.75;;;1.13;;
49910;SDS011;35803;53.096;5.844;2023-03-07T02:05:09;4.70;;;0.90;;
49910;SDS011;35803;53.096;5.844;2023-03-07T02:07:41;8.05;;;1.05;;
49910;SDS011;35803;53.096;5.844;2023-03-07T02:10:11;1.55;;;0.70;;
49910;SDS011;35803;53.096;5.844;2023-03-07T02:12:38;1.95;;;0.75;;
49910;SDS011;35803;53.096;5.844;2023-03-07T02:15:04;3.63;;;1.00;;
49910;SDS011;35803;53.096;5.844;2023-03-07T02:17:32;2.60;;;1.08;;
49910;SDS011;35803;53.096;5.844;2023-03-07T02:20:01;3.53;;;0.80;;
49910;SDS011;35803;53.096;5.844;2023-03-07T02:22:56;1.98;;;0.60;;
49910;SDS011;35803;53.096;5.844;2023-03-07T02:28:01;3.30;;;0.90;;
49910;SDS011;35803;53.096;5.844;2023-03-07T02:30:28;4.80;;;0.75;;
49910;SDS011;35803;53.096;5.844;2023-03-07T02:32:54;0.88;;;0.80;;
49910;SDS011;35803;53.096;5.844;2023-03-07T02:35:22;2.72;;;1.40;;
49910;SDS011;35803;53.096;5.844;2023-03-07T02:37:50;1.27;;;0.73;;
49910;SDS011;35803;53.096;5.844;2023-03-07T02:40:17;2.80;;;0.73;;
49910;SDS011;35803;53.096;5.844;2023-03-07T02:42:44;2.45;;;0.80;;
49910;SDS011;35803;53.096;5.844;2023-03-07T02:45:12;2.42;;;0.70;;
49910;SDS011;35803;53.096;5.844;2023-03-07T02:47:39;4.65;;;0.93;;
49910;SDS011;35803;53.096;5.844;2023-03-07T02:50:07;5.10;;;1.10;;
49910;SDS011;35803;53.096;5.844;2023-03-07T02:52:40;4.38;;;1.05;;
49910;SDS011;35803;53.096;5.844;2023-03-07T02:55:06;2.38;;;0.75;;
49910;SDS011;35803;53.096;5.844;2023-03-07T02:57:32;5.10;;;0.90;;
49910;SDS011;35803;53.096;5.844;2023-03-07T02:59:58;0.50;;;0.50;;
49910;SDS011;35803;53.096;5.844;2023-03-07T03:02:24;2.75;;;0.90;;
49910;SDS011;35803;53.096;5.844;2023-03-07T03:04:50;0.77;;;0.60;;
49910;SDS011;35803;53.096;5.844;2023-03-07T03:07:15;2.25;;;0.90;;
49910;SDS011;35803;53.096;5.844;2023-03-07T03:09:41;2.92;;;0.70;;
49910;SDS011;35803;53.096;5.844;2023-03-07T03:12:06;0.52;;;0.52;;
49910;SDS011;35803;53.096;5.844;2023-03-07T03:14:32;1.63;;;0.60;;
49910;SDS011;35803;53.096;5.844;2023-03-07T03:16:58;1.13;;;0.68;;
49910;SDS011;35803;53.096;5.844;2023-03-07T03:19:23;1.45;;;0.70;;
49910;SDS011;35803;53.096;5.844;2023-03-07T03:21:48;4.80;;;1.02;;
49910;SDS011;35803;53.096;5.844;2023-03-07T03:24:14;3.08;;;1.00;;
49910;SDS011;35803;53.096;5.844;2023-03-07T03:26:40;1.52;;;0.95;;
49910;SDS011;35803;53.096;5.844;2023-03-07T03:29:05;10.27;;;0.90;;
49910;SDS011;35803;53.096;5.844;2023-03-07T03:31:31;3.72;;;0.98;;
49910;SDS011;35803;53.096;5.844;2023-03-07T03:33:58;2.22;;;0.90;;
49910;SDS011;35803;53.096;5.844;2023-03-07T03:36:24;0.98;;;0.70;;
49910;SDS011;35803;53.096;5.844;2023-03-07T03:38:54;2.88;;;0.95;;
49910;SDS011;35803;53.096;5.844;2023-03-07T03:41:20;3.95;;;0.90;;
49910;SDS011;35803;53.096;5.844;2023-03-07T03:43:46;4.00;;;0.90;;
49910;SDS011;35803;53.096;5.844;2023-03-07T03:46:12;4.18;;;0.80;;
49910;SDS011;35803;53.096;5.844;2023-03-07T03:48:38;2.97;;;0.88;;
49910;SDS011;35803;53.096;5.844;2023-03-07T03:51:13;2.72;;;0.80;;
49910;SDS011;35803;53.096;5.844;2023-03-07T03:53:41;1.60;;;0.93;;
49910;SDS011;35803;53.096;5.844;2023-03-07T03:56:17;1.67;;;0.88;;
49910;SDS011;35803;53.096;5.844;2023-03-07T03:58:48;4.93;;;1.13;;
49910;SDS011;35803;53.096;5.844;2023-03-07T04:01:15;2.85;;;0.80;;
49910;SDS011;35803;53.096;5.844;2023-03-07T04:03:43;3.70;;;0.98;;
49910;SDS011;35803;53.096;5.844;2023-03-07T04:06:11;3.55;;;0.80;;
49910;SDS011;35803;53.096;5.844;2023-03-07T04:08:38;2.35;;;1.00;;
49910;SDS011;35803;53.096;5.844;2023-03-07T04:11:04;4.97;;;1.00;;
49910;SDS011;35803;53.096;5.844;2023-03-07T04:13:30;3.38;;;0.93;;
49910;SDS011;35803;53.096;5.844;2023-03-07T04:15:56;4.93;;;0.98;;
49910;SDS011;35803;53.096;5.844;2023-03-07T04:18:22;3.17;;;0.80;;
49910;SDS011;35803;53.096;5.844;2023-03-07T04:20:48;2.05;;;0.88;;
49910;SDS011;35803;53.096;5.844;2023-03-07T04:23:15;3.15;;;1.10;;
49910;SDS011;35803;53.096;5.844;2023-03-07T04:25:47;4.82;;;1.10;;
49910;SDS011;35803;53.096;5.844;2023-03-07T04:28:14;4.53;;;1.05;;
49910;SDS011;35803;53.096;5.844;2023-03-07T04:30:42;3.58;;;1.38;;
49910;SDS011;35803;53.096;5.844;2023-03-07T04:33:08;4.22;;;0.98;;
49910;SDS011;35803;53.096;5.844;2023-03-07T04:35:34;5.50;;;1.20;;
49910;SDS011;35803;53.096;5.844;2023-03-07T04:37:59;3.92;;;0.75;;
49910;SDS011;35803;53.096;5.844;2023-03-07T04:40:25;4.07;;;1.10;;
49910;SDS011;35803;53.096;5.844;2023-03-07T04:42:51;4.07;;;1.10;;
49910;SDS011;35803;53.096;5.844;2023-03-07T04:45:16;5.05;;;1.02;;
49910;SDS011;35803;53.096;5.844;2023-03-07T04:47:41;5.25;;;0.80;;
49910;SDS011;35803;53.096;5.844;2023-03-07T04:50:07;3.05;;;1.20;;
49910;SDS011;35803;53.096;5.844;2023-03-07T04:52:33;2.83;;;1.20;;
49910;SDS011;35803;53.096;5.844;2023-03-07T04:54:59;5.43;;;0.93;;
49910;SDS011;35803;53.096;5.844;2023-03-07T04:57:24;4.78;;;1.10;;
49910;SDS011;35803;53.096;5.844;2023-03-07T04:59:50;1.45;;;0.90;;
49910;SDS011;35803;53.096;5.844;2023-03-07T05:02:15;3.97;;;0.80;;
49910;SDS011;35803;53.096;5.844;2023-03-07T05:04:41;4.97;;;1.30;;
49910;SDS011;35803;53.096;5.844;2023-03-07T05:07:06;5.60;;;1.23;;
49910;SDS011;35803;53.096;5.844;2023-03-07T05:09:33;4.18;;;1.27;;
49910;SDS011;35803;53.096;5.844;2023-03-07T05:11:58;4.57;;;1.17;;
49910;SDS011;35803;53.096;5.844;2023-03-07T05:14:24;5.07;;;1.20;;
49910;SDS011;35803;53.096;5.844;2023-03-07T05:16:50;3.67;;;1.10;;
49910;SDS011;35803;53.096;5.844;2023-03-07T05:19:15;5.38;;;1.00;;
49910;SDS011;35803;53.096;5.844;2023-03-07T05:21:41;5.07;;;1.00;;
49910;SDS011;35803;53.096;5.844;2023-03-07T05:24:08;1.63;;;0.77;;
49910;SDS011;35803;53.096;5.844;2023-03-07T05:26:34;6.05;;;1.00;;
49910;SDS011;35803;53.096;5.844;2023-03-07T05:29:00;1.17;;;0.70;;
49910;SDS011;35803;53.096;5.844;2023-03-07T05:31:25;4.85;;;1.02;;
49910;SDS011;35803;53.096;5.844;2023-03-07T05:33:51;1.17;;;0.85;;
49910;SDS011;35803;53.096;5.844;2023-03-07T05:36:16;2.35;;;0.82;;
49910;SDS011;35803;53.096;5.844;2023-03-07T05:38:42;4.30;;;1.05;;
49910;SDS011;35803;53.096;5.844;2023-03-07T05:41:08;1.90;;;0.90;;
49910;SDS011;35803;53.096;5.844;2023-03-07T05:43:33;2.53;;;0.90;;
49910;SDS011;35803;53.096;5.844;2023-03-07T05:46:09;2.42;;;1.10;;
49910;SDS011;35803;53.096;5.844;2023-03-07T05:48:35;5.93;;;0.90;;
49910;SDS011;35803;53.096;5.844;2023-03-07T05:51:00;3.53;;;1.25;;
49910;SDS011;35803;53.096;5.844;2023-03-07T05:53:26;1.60;;;0.82;;
49910;SDS011;35803;53.096;5.844;2023-03-07T05:55:51;2.88;;;0.70;;
49910;SDS011;35803;53.096;5.844;2023-03-07T05:58:17;2.78;;;0.82;;
49910;SDS011;35803;53.096;5.844;2023-03-07T06:00:42;1.85;;;0.73;;
49910;SDS011;35803;53.096;5.844;2023-03-07T06:03:08;4.00;;;1.00;;
49910;SDS011;35803;53.096;5.844;2023-03-07T06:05:34;2.40;;;0.80;;
49910;SDS011;35803;53.096;5.844;2023-03-07T06:07:59;4.65;;;0.93;;
49910;SDS011;35803;53.096;5.844;2023-03-07T06:10:25;5.72;;;1.10;;
49910;SDS011;35803;53.096;5.844;2023-03-07T06:12:51;2.33;;;0.82;;
49910;SDS011;35803;53.096;5.844;2023-03-07T06:15:17;2.05;;;0.73;;
49910;SDS011;35803;53.096;5.844;2023-03-07T06:17:43;0.73;;;0.70;;
49910;SDS011;35803;53.096;5.844;2023-03-07T06:20:09;3.33;;;0.68;;
49910;SDS011;35803;53.096;5.844;2023-03-07T06:22:35;3.85;;;0.60;;
49910;SDS011;35803;53.096;5.844;2023-03-07T06:25:05;1.52;;;0.60;;
49910;SDS011;35803;53.096;5.844;2023-03-07T06:27:32;0.60;;;0.60;;
49910;SDS011;35803;53.096;5.844;2023-03-07T06:29:58;1.30;;;0.80;;
49910;SDS011;35803;53.096;5.844;2023-03-07T06:32:24;1.80;;;1.02;;
49910;SDS011;35803;53.096;5.844;2023-03-07T06:34:50;1.67;;;0.90;;
49910;SDS011;35803;53.096;5.844;2023-03-07T06:37:15;1.13;;;1.00;;
49910;SDS011;35803;53.096;5.844;2023-03-07T06:39:41;0.70;;;0.65;;
49910;SDS011;35803;53.096;5.844;2023-03-07T06:42:07;3.55;;;0.90;;
49910;SDS011;35803;53.096;5.844;2023-03-07T06:44:32;1.42;;;0.80;;
49910;SDS011;35803;53.096;5.844;2023-03-07T06:46:58;3.97;;;0.80;;
49910;SDS011;35803;53.096;5.844;2023-03-07T06:49:23;0.95;;;0.88;;
49910;SDS011;35803;53.096;5.844;2023-03-07T06:51:49;1.80;;;0.80;;
49910;SDS011;35803;53.096;5.844;2023-03-07T06:54:14;2.40;;;0.75;;
49910;SDS011;35803;53.096;5.844;2023-03-07T06:56:40;2.53;;;0.85;;
49910;SDS011;35803;53.096;5.844;2023-03-07T06:59:05;4.32;;;1.00;;
49910;SDS011;35803;53.096;5.844;2023-03-07T07:01:31;2.15;;;0.75;;
49910;SDS011;35803;53.096;5.844;2023-03-07T07:03:59;1.88;;;1.10;;
49910;SDS011;35803;53.096;5.844;2023-03-07T07:06:25;3.35;;;0.80;;
49910;SDS011;35803;53.096;5.844;2023-03-07T07:08:54;3.17;;;0.90;;
49910;SDS011;35803;53.096;5.844;2023-03-07T07:11:21;2.88;;;0.80;;
49910;SDS011;35803;53.096;5.844;2023-03-07T07:13:47;1.10;;;0.70;;
49910;SDS011;35803;53.096;5.844;2023-03-07T07:16:15;1.70;;;0.70;;
49910;SDS011;35803;53.096;5.844;2023-03-07T07:18:41;3.97;;;0.90;;
49910;SDS011;35803;53.096;5.844;2023-03-07T07:21:06;4.22;;;1.15;;
49910;SDS011;35803;53.096;5.844;2023-03-07T07:23:32;1.42;;;0.70;;
49910;SDS011;35803;53.096;5.844;2023-03-07T07:25:57;1.05;;;0.75;;
49910;SDS011;35803;53.096;5.844;2023-03-07T07:28:23;1.20;;;0.75;;
49910;SDS011;35803;53.096;5.844;2023-03-07T07:30:49;1.65;;;0.90;;
49910;SDS011;35803;53.096;5.844;2023-03-07T07:33:14;5.45;;;0.95;;
49910;SDS011;35803;53.096;5.844;2023-03-07T07:35:44;0.93;;;0.73;;
49910;SDS011;35803;53.096;5.844;2023-03-07T07:38:10;2.53;;;1.05;;
49910;SDS011;35803;53.096;5.844;2023-03-07T07:40:36;2.95;;;0.75;;
49910;SDS011;35803;53.096;5.844;2023-03-07T07:43:01;3.13;;;1.10;;
49910;SDS011;35803;53.096;5.844;2023-03-07T07:45:27;1.55;;;0.95;;
49910;SDS011;35803;53.096;5.844;2023-03-07T07:47:53;2.72;;;1.50;;
49910;SDS011;35803;53.096;5.844;2023-03-07T07:50:19;4.60;;;1.35;;
49910;SDS011;35803;53.096;5.844;2023-03-07T07:52:45;3.33;;;1.30;;
49910;SDS011;35803;53.096;5.844;2023-03-07T07:55:11;5.22;;;1.15;;
49910;SDS011;35803;53.096;5.844;2023-03-07T07:57:40;3.47;;;1.63;;
49910;SDS011;35803;53.096;5.844;2023-03-07T08:00:07;4.50;;;1.23;;
49910;SDS011;35803;53.096;5.844;2023-03-07T08:02:34;7.10;;;1.52;;
49910;SDS011;35803;53.096;5.844;2023-03-07T08:05:01;3.50;;;1.30;;
49910;SDS011;35803;53.096;5.844;2023-03-07T08:07:29;4.38;;;1.25;;
49910;SDS011;35803;53.096;5.844;2023-03-07T08:09:54;2.88;;;1.10;;
49910;SDS011;35803;53.096;5.844;2023-03-07T08:12:20;2.58;;;1.00;;
49910;SDS011;35803;53.096;5.844;2023-03-07T08:14:45;4.13;;;1.10;;
49910;SDS011;35803;53.096;5.844;2023-03-07T08:17:11;4.65;;;1.15;;
49910;SDS011;35803;53.096;5.844;2023-03-07T08:19:36;1.23;;;0.85;;
49910;SDS011;35803;53.096;5.844;2023-03-07T08:22:02;3.92;;;1.00;;
49910;SDS011;35803;53.096;5.844;2023-03-07T08:24:27;3.33;;;1.25;;
49910;SDS011;35803;53.096;5.844;2023-03-07T08:26:53;2.80;;;1.00;;
49910;SDS011;35803;53.096;5.844;2023-03-07T08:29:18;2.50;;;1.10;;
49910;SDS011;35803;53.096;5.844;2023-03-07T08:31:44;4.63;;;1.00;;
49910;SDS011;35803;53.096;5.844;2023-03-07T08:34:10;1.25;;;0.85;;
49910;SDS011;35803;53.096;5.844;2023-03-07T08:36:37;3.35;;;0.73;;
49910;SDS011;35803;53.096;5.844;2023-03-07T08:39:03;3.72;;;1.30;;
49910;SDS011;35803;53.096;5.844;2023-03-07T08:41:29;1.48;;;0.73;;
49910;SDS011;35803;53.096;5.844;2023-03-07T08:43:56;3.40;;;0.93;;
49910;SDS011;35803;53.096;5.844;2023-03-07T08:46:21;0.70;;;0.60;;
49910;SDS011;35803;53.096;5.844;2023-03-07T08:48:47;2.50;;;0.73;;
49910;SDS011;35803;53.096;5.844;2023-03-07T08:51:14;2.75;;;0.70;;
49910;SDS011;35803;53.096;5.844;2023-03-07T08:53:41;3.10;;;1.15;;
49910;SDS011;35803;53.096;5.844;2023-03-07T08:56:07;5.40;;;1.08;;
49910;SDS011;35803;53.096;5.844;2023-03-07T08:58:34;6.13;;;1.40;;
49910;SDS011;35803;53.096;5.844;2023-03-07T09:00:59;1.50;;;0.70;;
49910;SDS011;35803;53.096;5.844;2023-03-07T09:03:25;0.90;;;0.70;;
49910;SDS011;35803;53.096;5.844;2023-03-07T09:05:51;1.40;;;0.98;;
49910;SDS011;35803;53.096;5.844;2023-03-07T09:08:16;3.35;;;0.85;;
49910;SDS011;35803;53.096;5.844;2023-03-07T09:10:42;3.95;;;1.00;;
49910;SDS011;35803;53.096;5.844;2023-03-07T09:13:08;3.47;;;0.95;;
49910;SDS011;35803;53.096;5.844;2023-03-07T09:15:37;2.95;;;1.38;;
49910;SDS011;35803;53.096;5.844;2023-03-07T09:18:04;2.22;;;1.02;;
49910;SDS011;35803;53.096;5.844;2023-03-07T09:20:30;2.03;;;1.10;;
49910;SDS011;35803;53.096;5.844;2023-03-07T09:22:55;1.10;;;0.65;;
49910;SDS011;35803;53.096;5.844;2023-03-07T09:25:21;3.42;;;1.10;;
49910;SDS011;35803;53.096;5.844;2023-03-07T09:27:47;1.63;;;1.10;;
49910;SDS011;35803;53.096;5.844;2023-03-07T09:30:13;4.30;;;0.98;;
49910;SDS011;35803;53.096;5.844;2023-03-07T09:32:39;4.60;;;1.13;;
49910;SDS011;35803;53.096;5.844;2023-03-07T09:35:05;3.28;;;1.25;;
49910;SDS011;35803;53.096;5.844;2023-03-07T09:37:31;1.80;;;1.10;;
49910;SDS011;35803;53.096;5.844;2023-03-07T09:39:56;5.38;;;1.05;;
49910;SDS011;35803;53.096;5.844;2023-03-07T09:44:53;3.45;;;1.05;;
49910;SDS011;35803;53.096;5.844;2023-03-07T09:50:13;5.53;;;1.10;;
49910;SDS011;35803;53.096;5.844;2023-03-07T09:52:42;1.50;;;0.85;;
49910;SDS011;35803;53.096;5.844;2023-03-07T09:55:10;3.33;;;1.13;;
49910;SDS011;35803;53.096;5.844;2023-03-07T09:57:47;1.20;;;0.93;;
49910;SDS011;35803;53.096;5.844;2023-03-07T10:00:34;7.10;;;1.20;;
49910;SDS011;35803;53.096;5.844;2023-03-07T10:05:35;1.02;;;0.90;;
49910;SDS011;35803;53.096;5.844;2023-03-07T10:08:02;3.90;;;0.98;;
49910;SDS011;35803;53.096;5.844;2023-03-07T10:15:43;0.93;;;0.80;;
49910;SDS011;35803;53.096;5.844;2023-03-07T10:29:16;1.35;;;0.70;;
49910;SDS011;35803;53.096;5.844;2023-03-07T10:31:58;1.90;;;0.90;;
49910;SDS011;35803;53.096;5.844;2023-03-07T10:34:30;1.40;;;1.00;;
49910;SDS011;35803;53.096;5.844;2023-03-07T10:36:59;2.08;;;1.00;;
49910;SDS011;35803;53.096;5.844;2023-03-07T10:42:19;2.45;;;0.90;;
49910;SDS011;35803;53.096;5.844;2023-03-07T10:44:46;2.15;;;0.90;;
49910;SDS011;35803;53.096;5.844;2023-03-07T10:47:20;5.47;;;1.00;;
49910;SDS011;35803;53.096;5.844;2023-03-07T10:49:47;4.30;;;0.85;;
49910;SDS011;35803;53.096;5.844;2023-03-07T10:52:31;1.88;;;0.80;;
49910;SDS011;35803;53.096;5.844;2023-03-07T10:58:11;5.90;;;1.10;;
49910;SDS011;35803;53.096;5.844;2023-03-07T11:00:36;5.20;;;1.13;;
49910;SDS011;35803;53.096;5.844;2023-03-07T11:03:02;1.88;;;0.75;;
49910;SDS011;35803;53.096;5.844;2023-03-07T11:05:28;2.70;;;0.70;;
49910;SDS011;35803;53.096;5.844;2023-03-07T11:07:56;2.22;;;0.73;;
49910;SDS011;35803;53.096;5.844;2023-03-07T11:10:39;6.18;;;1.38;;
49910;SDS011;35803;53.096;5.844;2023-03-07T11:13:13;3.65;;;1.10;;
49910;SDS011;35803;53.096;5.844;2023-03-07T11:15:40;4.10;;;1.50;;
49910;SDS011;35803;53.096;5.844;2023-03-07T11:18:25;5.63;;;1.48;;
49910;SDS011;35803;53.096;5.844;2023-03-07T11:20:54;3.05;;;1.20;;
49910;SDS011;35803;53.096;5.844;2023-03-07T11:23:24;1.55;;;0.80;;
49910;SDS011;35803;53.096;5.844;2023-03-07T11:25:52;2.85;;;0.90;;
49910;SDS011;35803;53.096;5.844;2023-03-07T11:28:29;4.35;;;0.88;;
49910;SDS011;35803;53.096;5.844;2023-03-07T11:30:59;2.58;;;0.85;;
49910;SDS011;35803;53.096;5.844;2023-03-07T11:33:46;3.78;;;0.80;;
49910;SDS011;35803;53.096;5.844;2023-03-07T11:36:28;1.80;;;0.90;;
49910;SDS011;35803;53.096;5.844;2023-03-07T11:38:58;2.55;;;0.90;;
49910;SDS011;35803;53.096;5.844;2023-03-07T11:41:37;3.50;;;0.63;;
49910;SDS011;35803;53.096;5.844;2023-03-07T11:47:22;2.70;;;0.75;;
49910;SDS011;35803;53.096;5.844;2023-03-07T11:50:10;3.15;;;1.10;;
49910;SDS011;35803;53.096;5.844;2023-03-07T12:11:47;1.23;;;0.70;;
49910;SDS011;35803;53.096;5.844;2023-03-07T12:17:59;1.05;;;0.80;;
49910;SDS011;35803;53.096;5.844;2023-03-07T12:25:36;4.18;;;1.00;;
49910;SDS011;35803;53.096;5.844;2023-03-07T12:28:14;1.90;;;0.77;;
49910;SDS011;35803;53.096;5.844;2023-03-07T12:33:39;2.50;;;0.60;;
49910;SDS011;35803;53.096;5.844;2023-03-07T12:36:22;2.13;;;0.80;;
49910;SDS011;35803;53.096;5.844;2023-03-07T12:42:18;1.20;;;0.75;;
49910;SDS011;35803;53.096;5.844;2023-03-07T12:55:22;2.55;;;1.05;;
49910;SDS011;35803;53.096;5.844;2023-03-07T12:58:38;2.60;;;0.80;;
49910;SDS011;35803;53.096;5.844;2023-03-07T13:00:42;6.78;;;1.25;;
49910;SDS011;35803;53.096;5.844;2023-03-07T13:03:33;2.42;;;0.93;;
49910;SDS011;35803;53.096;5.844;2023-03-07T13:06:22;2.33;;;0.95;;
49910;SDS011;35803;53.096;5.844;2023-03-07T13:08:49;1.60;;;0.75;;
49910;SDS011;35803;53.096;5.844;2023-03-07T13:11:21;3.22;;;1.05;;
49910;SDS011;35803;53.096;5.844;2023-03-07T13:13:58;0.90;;;0.85;;
49910;SDS011;35803;53.096;5.844;2023-03-07T13:24:42;2.28;;;0.80;;
49910;SDS011;35803;53.096;5.844;2023-03-07T13:27:15;3.17;;;0.75;;
49910;SDS011;35803;53.096;5.844;2023-03-07T13:32:53;1.38;;;0.85;;
49910;SDS011;35803;53.096;5.844;2023-03-07T13:37:49;0.95;;;0.43;;
49910;SDS011;35803;53.096;5.844;2023-03-07T13:42:53;1.90;;;1.02;;
49910;SDS011;35803;53.096;5.844;2023-03-07T13:45:44;1.98;;;0.65;;
49910;SDS011;35803;53.096;5.844;2023-03-07T13:48:11;1.40;;;0.50;;
49910;SDS011;35803;53.096;5.844;2023-03-07T14:01:34;0.50;;;0.50;;
49910;SDS011;35803;53.096;5.844;2023-03-07T14:04:06;0.82;;;0.60;;
49910;SDS011;35803;53.096;5.844;2023-03-07T14:09:11;2.92;;;0.60;;
49910;SDS011;35803;53.096;5.844;2023-03-07T14:14:42;1.67;;;0.60;;
49910;SDS011;35803;53.096;5.844;2023-03-07T14:17:23;0.60;;;0.60;;
49910;SDS011;35803;53.096;5.844;2023-03-07T14:25:30;1.98;;;0.80;;
49910;SDS011;35803;53.096;5.844;2023-03-07T14:30:23;1.38;;;0.75;;
49910;SDS011;35803;53.096;5.844;2023-03-07T14:32:50;1.55;;;0.80;;
49910;SDS011;35803;53.096;5.844;2023-03-07T14:35:36;0.40;;;0.40;;
49910;SDS011;35803;53.096;5.844;2023-03-07T14:38:21;1.63;;;0.80;;
49910;SDS011;35803;53.096;5.844;2023-03-07T14:41:01;1.63;;;0.98;;
49910;SDS011;35803;53.096;5.844;2023-03-07T14:49:20;0.50;;;0.50;;
49910;SDS011;35803;53.096;5.844;2023-03-07T14:51:48;0.73;;;0.60;;
49910;SDS011;35803;53.096;5.844;2023-03-07T14:54:16;1.73;;;0.70;;
49910;SDS011;35803;53.096;5.844;2023-03-07T14:56:49;0.50;;;0.50;;
49910;SDS011;35803;53.096;5.844;2023-03-07T14:59:16;0.75;;;0.45;;
49910;SDS011;35803;53.096;5.844;2023-03-07T15:01:42;3.25;;;0.68;;
49910;SDS011;35803;53.096;5.844;2023-03-07T15:07:06;0.50;;;0.50;;
49910;SDS011;35803;53.096;5.844;2023-03-07T15:09:35;0.60;;;0.60;;
49910;SDS011;35803;53.096;5.844;2023-03-07T15:12:24;1.08;;;0.63;;
49910;SDS011;35803;53.096;5.844;2023-03-07T15:14:58;0.60;;;0.60;;
49910;SDS011;35803;53.096;5.844;2023-03-07T15:17:27;3.97;;;0.75;;
49910;SDS011;35803;53.096;5.844;2023-03-07T15:20:37;0.77;;;0.70;;
49910;SDS011;35803;53.096;5.844;2023-03-07T15:22:44;0.50;;;0.50;;
49910;SDS011;35803;53.096;5.844;2023-03-07T15:25:17;1.10;;;0.60;;
49910;SDS011;35803;53.096;5.844;2023-03-07T15:27:44;1.17;;;0.50;;
49910;SDS011;35803;53.096;5.844;2023-03-07T15:30:44;1.92;;;0.65;;
49910;SDS011;35803;53.096;5.844;2023-03-07T15:33:13;1.67;;;0.70;;
49910;SDS011;35803;53.096;5.844;2023-03-07T15:38:31;1.15;;;0.65;;
49910;SDS011;35803;53.096;5.844;2023-03-07T15:41:01;0.50;;;0.50;;
49910;SDS011;35803;53.096;5.844;2023-03-07T15:43:27;3.40;;;0.70;;
49910;SDS011;35803;53.096;5.844;2023-03-07T15:46:03;2.88;;;0.65;;
49910;SDS011;35803;53.096;5.844;2023-03-07T15:48:42;0.52;;;0.52;;
49910;SDS011;35803;53.096;5.844;2023-03-07T15:51:16;1.15;;;0.52;;
49910;SDS011;35803;53.096;5.844;2023-03-07T15:53:43;1.13;;;0.43;;
49910;SDS011;35803;53.096;5.844;2023-03-07T15:56:43;1.08;;;0.80;;
49910;SDS011;35803;53.096;5.844;2023-03-07T15:59:03;0.55;;;0.40;;
49910;SDS011;35803;53.096;5.844;2023-03-07T16:01:31;0.73;;;0.52;;
49910;SDS011;35803;53.096;5.844;2023-03-07T16:03:58;0.73;;;0.43;;
49910;SDS011;35803;53.096;5.844;2023-03-07T16:06:29;0.90;;;0.50;;
49910;SDS011;35803;53.096;5.844;2023-03-07T16:09:04;1.45;;;0.50;;
49910;SDS011;35803;53.096;5.844;2023-03-07T16:11:30;1.08;;;0.55;;
49910;SDS011;35803;53.096;5.844;2023-03-07T16:13:56;1.27;;;0.65;;
49910;SDS011;35803;53.096;5.844;2023-03-07T16:16:23;1.55;;;0.50;;
49910;SDS011;35803;53.096;5.844;2023-03-07T16:18:50;0.50;;;0.50;;
49910;SDS011;35803;53.096;5.844;2023-03-07T16:21:16;0.50;;;0.50;;
49910;SDS011;35803;53.096;5.844;2023-03-07T16:23:43;1.63;;;0.77;;
49910;SDS011;35803;53.096;5.844;2023-03-07T16:26:11;0.73;;;0.73;;
49910;SDS011;35803;53.096;5.844;2023-03-07T16:28:39;1.02;;;0.60;;
49910;SDS011;35803;53.096;5.844;2023-03-07T16:31:09;0.70;;;0.60;;
49910;SDS011;35803;53.096;5.844;2023-03-07T16:33:40;0.60;;;0.60;;
49910;SDS011;35803;53.096;5.844;2023-03-07T16:36:07;1.42;;;0.70;;
49910;SDS011;35803;53.096;5.844;2023-03-07T16:38:33;0.70;;;0.65;;
49910;SDS011;35803;53.096;5.844;2023-03-07T16:40:59;2.45;;;1.10;;
49910;SDS011;35803;53.096;5.844;2023-03-07T16:43:37;4.18;;;1.15;;
49910;SDS011;35803;53.096;5.844;2023-03-07T16:46:13;2.28;;;1.33;;
49910;SDS011;35803;53.096;5.844;2023-03-07T16:48:39;3.20;;;1.50;;
49910;SDS011;35803;53.096;5.844;2023-03-07T16:51:07;3.28;;;1.50;;
49910;SDS011;35803;53.096;5.844;2023-03-07T16:53:43;1.65;;;0.90;;
49910;SDS011;35803;53.096;5.844;2023-03-07T16:56:18;1.88;;;1.20;;
49910;SDS011;35803;53.096;5.844;2023-03-07T16:58:45;1.65;;;1.23;;
49910;SDS011;35803;53.096;5.844;2023-03-07T17:01:11;1.35;;;0.90;;
49910;SDS011;35803;53.096;5.844;2023-03-07T17:03:38;4.95;;;1.60;;
49910;SDS011;35803;53.096;5.844;2023-03-07T17:06:04;3.38;;;1.40;;
49910;SDS011;35803;53.096;5.844;2023-03-07T17:08:30;6.60;;;1.80;;
49910;SDS011;35803;53.096;5.844;2023-03-07T17:10:56;5.70;;;2.40;;
49910;SDS011;35803;53.096;5.844;2023-03-07T17:13:21;4.15;;;1.90;;